Time;durP1;ratioP1;P1;durP2;ratioP2;P2;SDS_P1;SDS_P2;PMS_P1;PMS_P2;Temp;Humidity;BMP_temperature;BMP_pressure;BME280_temperature;BME280_humidity;BME280_pressure;Samples;Min_cycle;Max_cycle;Signal;HPM_P1;HPM_P2
2022/07/04 00:00:40;;;;;;;5.32;5.13;;;;;;;;;;5084820;28;20040;-62
2022/07/04 00:03:07;;;;;;;5.45;5.25;;;;;;;;;;5094009;28;20543;-63
2022/07/04 00:05:32;;;;;;;5.40;5.20;;;;;;;;;;5097867;28;20035;-63
2022/07/04 00:07:58;;;;;;;5.18;4.97;;;;;;;;;;5090973;28;20012;-64
2022/07/04 00:10:23;;;;;;;5.30;5.10;;;;;;;;;;5087223;28;20025;-64
2022/07/04 00:12:49;;;;;;;5.30;5.10;;;;;;;;;;5101068;28;20028;-63
2022/07/04 00:15:14;;;;;;;5.30;5.10;;;;;;;;;;5098052;28;20078;-65
2022/07/04 00:17:40;;;;;;;5.40;5.20;;;;;;;;;;5100731;28;20024;-64
2022/07/04 00:20:06;;;;;;;5.40;5.20;;;;;;;;;;5092654;28;20031;-64
2022/07/04 00:22:31;;;;;;;5.35;5.15;;;;;;;;;;5096010;28;20103;-63
2022/07/04 00:24:57;;;;;;;5.40;5.20;;;;;;;;;;5105123;28;20127;-62
2022/07/04 00:27:22;;;;;;;5.40;5.20;;;;;;;;;;5098458;28;20448;-63
2022/07/04 00:29:48;;;;;;;5.30;5.10;;;;;;;;;;5097117;28;20077;-63
2022/07/04 00:32:13;;;;;;;5.32;5.13;;;;;;;;;;5092650;28;20028;-63
2022/07/04 00:34:38;;;;;;;5.30;5.10;;;;;;;;;;5090954;28;20020;-62
2022/07/04 00:37:04;;;;;;;5.40;5.20;;;;;;;;;;5092275;28;20028;-63
2022/07/04 00:39:29;;;;;;;5.40;5.20;;;;;;;;;;5092465;28;20032;-62
2022/07/04 00:41:55;;;;;;;5.30;5.10;;;;;;;;;;5089716;28;20077;-64
2022/07/04 00:44:21;;;;;;;5.30;5.10;;;;;;;;;;5093390;28;20039;-64
2022/07/04 00:46:47;;;;;;;5.40;5.20;;;;;;;;;;5091589;28;20385;-63
2022/07/04 00:49:12;;;;;;;5.30;5.10;;;;;;;;;;5098780;28;20074;-62
2022/07/04 00:51:38;;;;;;;5.30;5.10;;;;;;;;;;5096702;28;20103;-64
2022/07/04 00:54:04;;;;;;;5.30;5.10;;;;;;;;;;5093051;28;20052;-63
2022/07/04 00:56:30;;;;;;;5.35;5.15;;;;;;;;;;5094007;28;20020;-63
2022/07/04 00:58:55;;;;;;;5.22;5.03;;;;;;;;;;5088572;28;20553;-64
2022/07/04 01:01:21;;;;;;;5.32;5.13;;;;;;;;;;5101723;28;20019;-62
2022/07/04 01:03:47;;;;;;;5.28;5.07;;;;;;;;;;5092689;28;20463;-62
2022/07/04 01:06:13;;;;;;;5.25;5.05;;;;;;;;;;5086973;28;20028;-64
2022/07/04 01:08:39;;;;;;;5.30;5.10;;;;;;;;;;5090321;28;20077;-63
2022/07/04 01:11:05;;;;;;;5.30;5.10;;;;;;;;;;5093736;28;20031;-64
2022/07/04 01:13:30;;;;;;;5.15;4.95;;;;;;;;;;5091752;28;20016;-63
2022/07/04 01:15:56;;;;;;;5.18;4.97;;;;;;;;;;5104126;28;20037;-63
2022/07/04 01:18:21;;;;;;;5.25;5.05;;;;;;;;;;5102964;28;20411;-63
2022/07/04 01:20:46;;;;;;;5.13;4.93;;;;;;;;;;5092250;28;20391;-63
2022/07/04 01:23:12;;;;;;;5.20;5.00;;;;;;;;;;5100052;28;20028;-62
2022/07/04 01:25:37;;;;;;;5.18;4.97;;;;;;;;;;5089925;28;20024;-64
2022/07/04 01:28:03;;;;;;;5.10;4.90;;;;;;;;;;5094578;28;20032;-63
2022/07/04 01:30:29;;;;;;;5.20;5.00;;;;;;;;;;5092371;28;20489;-63
2022/07/04 01:32:54;;;;;;;5.10;4.90;;;;;;;;;;5095657;28;20720;-62
2022/07/04 01:35:20;;;;;;;5.18;4.97;;;;;;;;;;5090019;28;20068;-63
2022/07/04 01:37:45;;;;;;;5.22;5.03;;;;;;;;;;5103862;28;20054;-63
2022/07/04 01:40:12;;;;;;;5.28;5.07;;;;;;;;;;5086471;28;20070;-64
2022/07/04 01:42:37;;;;;;;5.20;5.00;;;;;;;;;;5091431;28;20038;-64
2022/07/04 01:45:03;;;;;;;5.32;5.13;;;;;;;;;;5102842;28;20475;-64
2022/07/04 01:47:28;;;;;;;5.20;5.00;;;;;;;;;;5087686;28;20048;-64
2022/07/04 01:49:53;;;;;;;5.10;4.90;;;;;;;;;;5087205;28;20494;-63
2022/07/04 01:52:18;;;;;;;5.00;4.80;;;;;;;;;;5091864;28;20080;-63
2022/07/04 01:54:44;;;;;;;5.20;5.00;;;;;;;;;;5092813;28;20016;-63
2022/07/04 01:57:09;;;;;;;5.22;5.03;;;;;;;;;;5090303;28;20043;-63
2022/07/04 02:02:18;;;;;;;5.20;5.00;;;;;;;;;;5086327;28;20046;-63
2022/07/04 02:04:44;;;;;;;5.30;5.10;;;;;;;;;;5088709;28;20480;-63
2022/07/04 02:07:09;;;;;;;5.10;4.90;;;;;;;;;;5086071;28;20096;-62
2022/07/04 02:09:34;;;;;;;5.20;5.00;;;;;;;;;;5092374;28;20050;-62
2022/07/04 02:14:44;;;;;;;5.20;5.00;;;;;;;;;;5091790;28;20027;-63
2022/07/04 02:17:09;;;;;;;5.10;4.90;;;;;;;;;;5092745;28;20036;-64
2022/07/04 02:19:35;;;;;;;5.18;4.97;;;;;;;;;;5091557;28;20020;-63
2022/07/04 02:22:00;;;;;;;5.10;4.90;;;;;;;;;;5086247;28;20396;-63
2022/07/04 02:24:25;;;;;;;5.20;5.00;;;;;;;;;;5094367;28;20467;-63
2022/07/04 02:26:51;;;;;;;5.20;5.00;;;;;;;;;;5094007;28;20016;-62
2022/07/04 02:29:16;;;;;;;5.30;5.10;;;;;;;;;;5092196;28;20026;-62
2022/07/04 02:31:41;;;;;;;5.20;5.00;;;;;;;;;;5082622;28;20017;-64
2022/07/04 02:34:07;;;;;;;5.20;5.00;;;;;;;;;;5091290;28;20468;-62
2022/07/04 02:36:32;;;;;;;5.30;5.10;;;;;;;;;;5092398;28;20095;-63
2022/07/04 02:38:58;;;;;;;5.40;5.20;;;;;;;;;;5090393;28;20047;-63
2022/07/04 02:41:23;;;;;;;5.40;5.20;;;;;;;;;;5091620;28;20788;-63
2022/07/04 02:43:49;;;;;;;5.25;5.05;;;;;;;;;;5083101;28;20399;-63
2022/07/04 02:46:14;;;;;;;5.20;5.00;;;;;;;;;;5082713;28;20449;-63
2022/07/04 02:48:40;;;;;;;5.18;4.97;;;;;;;;;;5090898;28;20111;-63
2022/07/04 02:51:05;;;;;;;5.20;5.00;;;;;;;;;;5090198;28;20364;-63
2022/07/04 02:53:31;;;;;;;5.25;5.05;;;;;;;;;;5091794;28;20048;-62
2022/07/04 02:55:56;;;;;;;5.20;5.00;;;;;;;;;;5091847;28;20098;-62
2022/07/04 02:58:21;;;;;;;5.25;5.05;;;;;;;;;;5092411;28;20020;-62
2022/07/04 03:00:47;;;;;;;5.32;5.13;;;;;;;;;;5078561;28;20036;-62
2022/07/04 03:03:12;;;;;;;5.40;5.20;;;;;;;;;;5077640;28;20043;-63
2022/07/04 03:05:39;;;;;;;5.30;5.10;;;;;;;;;;5090646;28;20032;-62
2022/07/04 03:08:05;;;;;;;5.43;5.22;;;;;;;;;;5088752;28;20059;-62
2022/07/04 03:10:30;;;;;;;5.22;5.03;;;;;;;;;;5090695;28;20032;-62
2022/07/04 03:12:55;;;;;;;5.50;5.30;;;;;;;;;;5091644;28;20042;-62
2022/07/04 03:15:21;;;;;;;5.40;5.20;;;;;;;;;;5098042;28;20463;-63
2022/07/04 03:17:46;;;;;;;5.43;5.22;;;;;;;;;;5091966;28;20479;-63
2022/07/04 03:20:11;;;;;;;5.40;5.20;;;;;;;;;;5088120;28;20387;-63
2022/07/04 03:22:36;;;;;;;5.60;5.40;;;;;;;;;;5089297;28;20024;-63
2022/07/04 03:25:02;;;;;;;5.43;5.22;;;;;;;;;;5090619;28;20121;-63
2022/07/04 03:27:27;;;;;;;5.40;5.20;;;;;;;;;;5090439;28;20051;-63
2022/07/04 03:29:53;;;;;;;5.50;5.30;;;;;;;;;;5090248;28;20023;-63
2022/07/04 03:32:18;;;;;;;5.63;5.43;;;;;;;;;;5090461;28;20090;-63
2022/07/04 03:34:44;;;;;;;5.38;5.18;;;;;;;;;;5091426;28;20507;-63
2022/07/04 03:37:09;;;;;;;5.50;5.30;;;;;;;;;;5091570;28;20020;-63
2022/07/04 03:39:34;;;;;;;5.40;5.20;;;;;;;;;;5087260;28;20024;-63
2022/07/04 03:42:00;;;;;;;5.38;5.18;;;;;;;;;;5093341;28;20050;-63
2022/07/04 03:44:25;;;;;;;5.40;5.20;;;;;;;;;;5077850;28;20026;-63
2022/07/04 03:46:50;;;;;;;5.40;5.20;;;;;;;;;;5091504;28;20044;-64
2022/07/04 03:49:15;;;;;;;5.50;5.30;;;;;;;;;;5097348;28;20487;-63
2022/07/04 03:51:41;;;;;;;5.40;5.20;;;;;;;;;;5093210;28;20081;-63
2022/07/04 03:54:06;;;;;;;5.55;5.35;;;;;;;;;;5095127;28;20055;-63
2022/07/04 03:56:32;;;;;;;5.60;5.40;;;;;;;;;;5094320;28;20024;-63
2022/07/04 03:58:57;;;;;;;5.55;5.35;;;;;;;;;;5094823;28;20515;-63
2022/07/04 04:01:22;;;;;;;5.70;5.50;;;;;;;;;;5091840;28;20024;-63
2022/07/04 04:06:32;;;;;;;5.65;5.45;;;;;;;;;;5100611;28;20027;-64
2022/07/04 04:08:57;;;;;;;5.60;5.40;;;;;;;;;;5094855;28;20433;-64
2022/07/04 04:11:23;;;;;;;5.43;5.22;;;;;;;;;;5094806;28;20016;-64
2022/07/04 04:13:48;;;;;;;5.57;5.38;;;;;;;;;;5093686;28;20020;-64
2022/07/04 04:16:13;;;;;;;5.80;5.60;;;;;;;;;;5094726;28;20028;-64
2022/07/04 04:18:39;;;;;;;5.70;5.50;;;;;;;;;;5092253;28;20386;-63
2022/07/04 04:21:04;;;;;;;5.70;5.50;;;;;;;;;;5094882;28;20391;-64
2022/07/04 04:23:30;;;;;;;5.80;5.60;;;;;;;;;;5094259;28;20256;-63
2022/07/04 04:25:55;;;;;;;5.80;5.60;;;;;;;;;;5094421;28;20369;-63
2022/07/04 04:28:21;;;;;;;5.90;5.70;;;;;;;;;;5094617;28;20020;-64
2022/07/04 04:30:46;;;;;;;5.90;5.70;;;;;;;;;;5093178;28;20436;-64
2022/07/04 04:33:11;;;;;;;5.90;5.70;;;;;;;;;;5094682;28;20020;-64
2022/07/04 04:35:36;;;;;;;6.00;5.80;;;;;;;;;;5093963;28;20731;-63
2022/07/04 04:38:02;;;;;;;6.10;5.90;;;;;;;;;;5092970;28;20379;-63
2022/07/04 04:40:27;;;;;;;6.00;5.80;;;;;;;;;;5092519;28;20277;-64
2022/07/04 04:42:52;;;;;;;6.00;5.80;;;;;;;;;;5092134;28;20027;-63
2022/07/04 04:45:18;;;;;;;5.95;5.75;;;;;;;;;;5093856;28;20028;-63
2022/07/04 04:47:43;;;;;;;6.07;5.88;;;;;;;;;;5092773;28;20065;-63
2022/07/04 04:50:11;;;;;;;5.90;5.70;;;;;;;;;;5093526;28;20484;-64
2022/07/04 04:52:37;;;;;;;6.07;5.88;;;;;;;;;;5093822;28;20016;-63
2022/07/04 04:55:02;;;;;;;5.97;5.78;;;;;;;;;;5093061;28;20023;-64
2022/07/04 04:57:28;;;;;;;5.88;5.68;;;;;;;;;;5093742;28;20027;-63
2022/07/04 04:59:53;;;;;;;5.97;5.77;;;;;;;;;;5093497;28;20024;-63
2022/07/04 05:02:18;;;;;;;6.03;5.83;;;;;;;;;;5078878;28;20277;-63
2022/07/04 05:04:44;;;;;;;5.93;5.72;;;;;;;;;;5092582;28;20500;-63
2022/07/04 05:07:09;;;;;;;5.97;5.78;;;;;;;;;;5093280;28;20093;-63
2022/07/04 05:09:34;;;;;;;6.10;5.90;;;;;;;;;;5092924;28;20012;-63
2022/07/04 05:12:00;;;;;;;6.40;6.10;;;;;;;;;;5093753;28;20249;-63
2022/07/04 05:14:25;;;;;;;6.27;6.03;;;;;;;;;;5092972;28;20745;-63
2022/07/04 05:16:50;;;;;;;6.10;5.90;;;;;;;;;;5093802;28;20620;-64
2022/07/04 05:19:15;;;;;;;6.07;5.87;;;;;;;;;;5093336;28;20727;-63
2022/07/04 05:21:41;;;;;;;6.10;5.90;;;;;;;;;;5092321;28;20310;-63
2022/07/04 05:24:06;;;;;;;6.07;5.87;;;;;;;;;;5087190;28;20298;-64
2022/07/04 05:26:32;;;;;;;6.13;5.93;;;;;;;;;;5081356;28;20264;-64
2022/07/04 05:28:57;;;;;;;6.00;5.80;;;;;;;;;;5093313;28;20012;-63
2022/07/04 05:31:24;;;;;;;6.20;6.00;;;;;;;;;;5089066;28;20024;-63
2022/07/04 05:33:49;;;;;;;6.05;5.85;;;;;;;;;;5091805;28;20111;-63
2022/07/04 05:36:15;;;;;;;6.07;5.88;;;;;;;;;;5080579;28;20109;-63
2022/07/04 05:38:40;;;;;;;6.10;5.90;;;;;;;;;;5092496;28;20032;-64
2022/07/04 05:41:05;;;;;;;6.00;5.80;;;;;;;;;;5092975;28;20016;-63
2022/07/04 05:43:31;;;;;;;6.27;6.07;;;;;;;;;;5087814;28;20259;-63
2022/07/04 05:45:56;;;;;;;6.20;6.00;;;;;;;;;;5092021;28;20284;-63
2022/07/04 05:48:21;;;;;;;6.40;6.10;;;;;;;;;;5094138;28;20364;-63
2022/07/04 05:50:46;;;;;;;6.20;6.00;;;;;;;;;;5092792;28;20252;-63
2022/07/04 05:53:12;;;;;;;6.10;5.90;;;;;;;;;;5091810;28;20460;-64
2022/07/04 05:55:37;;;;;;;5.90;5.70;;;;;;;;;;5091737;28;20256;-63
2022/07/04 05:58:03;;;;;;;6.20;6.00;;;;;;;;;;5092864;28;20421;-63
2022/07/04 06:00:28;;;;;;;6.13;5.93;;;;;;;;;;5093110;28;20024;-63
2022/07/04 06:02:53;;;;;;;6.50;6.20;;;;;;;;;;5094117;28;20762;-62
2022/07/04 06:05:19;;;;;;;6.43;6.13;;;;;;;;;;5090068;28;20052;-63
2022/07/04 06:07:44;;;;;;;6.40;6.10;;;;;;;;;;5089014;28;20424;-63
2022/07/04 06:10:09;;;;;;;6.20;6.00;;;;;;;;;;5091486;28;20051;-63
2022/07/04 06:12:35;;;;;;;6.00;5.80;;;;;;;;;;5082863;28;20273;-63
2022/07/04 06:15:00;;;;;;;5.90;5.70;;;;;;;;;;5088077;28;20407;-63
2022/07/04 06:17:26;;;;;;;5.90;5.70;;;;;;;;;;5092597;28;20020;-63
2022/07/04 06:19:51;;;;;;;5.80;5.60;;;;;;;;;;5090970;28;20024;-63
2022/07/04 06:22:16;;;;;;;5.87;5.67;;;;;;;;;;5091069;28;20442;-63
2022/07/04 06:24:42;;;;;;;5.97;5.77;;;;;;;;;;5092190;28;20245;-64
2022/07/04 06:27:07;;;;;;;6.18;5.97;;;;;;;;;;5089732;28;20106;-63
2022/07/04 06:29:32;;;;;;;6.10;5.90;;;;;;;;;;5090883;28;20372;-64
2022/07/04 06:31:58;;;;;;;6.05;5.85;;;;;;;;;;5086378;28;20021;-63
2022/07/04 06:37:07;;;;;;;5.60;5.40;;;;;;;;;;5091068;28;20070;-63
2022/07/04 06:39:32;;;;;;;5.53;5.33;;;;;;;;;;5091681;28;20023;-63
2022/07/04 06:41:57;;;;;;;5.50;5.30;;;;;;;;;;5091067;28;20318;-63
2022/07/04 06:44:23;;;;;;;5.60;5.40;;;;;;;;;;5091805;28;20748;-65
2022/07/04 06:46:48;;;;;;;5.78;5.57;;;;;;;;;;5090398;28;20280;-63
2022/07/04 06:49:13;;;;;;;5.90;5.70;;;;;;;;;;5091451;28;20635;-63
2022/07/04 06:51:39;;;;;;;5.72;5.53;;;;;;;;;;5088134;28;20032;-63
2022/07/04 06:54:05;;;;;;;5.90;5.70;;;;;;;;;;5084425;28;20039;-64
2022/07/04 06:56:30;;;;;;;6.05;5.85;;;;;;;;;;5080786;28;20065;-63
2022/07/04 06:58:56;;;;;;;6.00;5.80;;;;;;;;;;5081746;28;20023;-63
2022/07/04 07:01:22;;;;;;;6.17;5.97;;;;;;;;;;5088578;28;20056;-63
2022/07/04 07:03:47;;;;;;;6.07;5.88;;;;;;;;;;5085079;28;20424;-63
2022/07/04 07:06:12;;;;;;;6.13;5.93;;;;;;;;;;5089097;28;20016;-63
2022/07/04 07:08:38;;;;;;;6.45;6.15;;;;;;;;;;5089257;28;20269;-63
2022/07/04 07:11:12;;;;;;;6.57;6.28;;;;;;;;;;5084906;28;20508;-64
2022/07/04 07:13:44;;;;;;;6.35;6.07;;;;;;;;;;5101816;28;20022;-65
2022/07/04 07:16:10;;;;;;;6.35;6.07;;;;;;;;;;5081543;28;20425;-63
2022/07/04 07:18:36;;;;;;;6.47;6.18;;;;;;;;;;5091649;28;20028;-64
2022/07/04 07:21:01;;;;;;;6.05;5.85;;;;;;;;;;5094477;28;20494;-64
2022/07/04 07:23:27;;;;;;;6.50;6.20;;;;;;;;;;5095539;28;20028;-64
2022/07/04 07:25:52;;;;;;;6.50;6.20;;;;;;;;;;5094062;28;20020;-63
2022/07/04 07:28:18;;;;;;;6.87;6.57;;;;;;;;;;5094236;28;20265;-63
2022/07/04 07:30:43;;;;;;;6.40;6.10;;;;;;;;;;5096226;28;20289;-63
2022/07/04 07:33:09;;;;;;;6.00;5.80;;;;;;;;;;5095846;28;20803;-63
2022/07/04 07:35:34;;;;;;;6.00;5.80;;;;;;;;;;5095337;28;20433;-63
2022/07/04 07:37:59;;;;;;;5.83;5.63;;;;;;;;;;5086721;28;20032;-63
2022/07/04 07:40:25;;;;;;;5.80;5.60;;;;;;;;;;5095259;28;20256;-63
2022/07/04 07:42:50;;;;;;;5.87;5.67;;;;;;;;;;5095070;28;20028;-63
2022/07/04 07:45:16;;;;;;;5.88;5.68;;;;;;;;;;5093883;28;20760;-63
2022/07/04 07:47:42;;;;;;;6.00;5.80;;;;;;;;;;5094160;28;20044;-69
2022/07/04 07:50:07;;;;;;;6.10;5.90;;;;;;;;;;5096514;28;20387;-63
2022/07/04 07:52:34;;;;;;;5.85;5.65;;;;;;;;;;5094960;28;20023;-63
2022/07/04 07:54:59;;;;;;;5.93;5.72;;;;;;;;;;5093831;28;20028;-63
2022/07/04 07:57:25;;;;;;;5.88;5.68;;;;;;;;;;5082855;28;20027;-63
2022/07/04 07:59:50;;;;;;;5.80;5.60;;;;;;;;;;5094469;28;20031;-64
2022/07/04 08:02:15;;;;;;;5.90;5.70;;;;;;;;;;5094799;28;20766;-64
2022/07/04 08:04:41;;;;;;;5.87;5.67;;;;;;;;;;5094824;28;20233;-63
2022/07/04 08:07:10;;;;;;;5.70;5.50;;;;;;;;;;5094644;28;20283;-64
2022/07/04 08:09:36;;;;;;;5.80;5.60;;;;;;;;;;5094468;28;20502;-63
2022/07/04 08:12:03;;;;;;;5.63;5.43;;;;;;;;;;5093943;28;20020;-64
2022/07/04 08:14:29;;;;;;;5.68;5.47;;;;;;;;;;5093290;28;20016;-64
2022/07/04 08:16:55;;;;;;;5.63;5.43;;;;;;;;;;5094506;28;20020;-64
2022/07/04 08:19:20;;;;;;;5.80;5.60;;;;;;;;;;5094602;28;20581;-63
2022/07/04 08:21:48;;;;;;;6.00;5.80;;;;;;;;;;5094571;28;20099;-63
2022/07/04 08:24:14;;;;;;;6.03;5.82;;;;;;;;;;5094433;28;20375;-64
2022/07/04 08:26:39;;;;;;;5.97;5.78;;;;;;;;;;5106881;28;20026;-64
2022/07/04 08:29:17;;;;;;;5.83;5.63;;;;;;;;;;5091632;28;20054;-63
2022/07/04 08:31:42;;;;;;;5.80;5.60;;;;;;;;;;5093463;28;20306;-63
2022/07/04 08:34:08;;;;;;;5.85;5.65;;;;;;;;;;5094264;28;20024;-63
2022/07/04 08:36:33;;;;;;;5.90;5.70;;;;;;;;;;5094304;28;20020;-64
2022/07/04 08:38:59;;;;;;;5.77;5.57;;;;;;;;;;5094496;28;20024;-64
2022/07/04 08:41:24;;;;;;;5.80;5.60;;;;;;;;;;5094471;28;20713;-64
2022/07/04 08:43:51;;;;;;;5.93;5.72;;;;;;;;;;5094160;28;20095;-64
2022/07/04 08:46:19;;;;;;;5.93;5.72;;;;;;;;;;5091601;28;20480;-65
2022/07/04 08:48:54;;;;;;;5.88;5.68;;;;;;;;;;5094114;28;20024;-64
2022/07/04 08:51:37;;;;;;;5.85;5.65;;;;;;;;;;5094069;28;20024;-63
2022/07/04 08:58:25;;;;;;;5.75;5.55;;;;;;;;;;5094264;28;20016;-63
2022/07/04 08:59:31;;;;;;;5.65;5.45;;;;;;;;;;5094294;28;20027;-65
2022/07/04 09:01:57;;;;;;;5.82;5.63;;;;;;;;;;5092961;28;20119;-64
2022/07/04 09:04:22;;;;;;;5.80;5.60;;;;;;;;;;5094073;28;20020;-64
2022/07/04 09:06:48;;;;;;;5.90;5.70;;;;;;;;;;5093503;28;20460;-65
2022/07/04 09:09:13;;;;;;;5.72;5.53;;;;;;;;;;5093667;28;20019;-64
2022/07/04 09:11:39;;;;;;;5.55;5.35;;;;;;;;;;5083079;28;20020;-64
2022/07/04 09:14:06;;;;;;;5.80;5.60;;;;;;;;;;5090900;28;20383;-68
2022/07/04 09:16:31;;;;;;;5.70;5.50;;;;;;;;;;5093784;28;20081;-64
2022/07/04 09:18:59;;;;;;;5.93;5.72;;;;;;;;;;5092708;28;20095;-63
2022/07/04 09:21:42;;;;;;;5.90;5.70;;;;;;;;;;5090522;28;20115;-64
2022/07/04 09:24:08;;;;;;;5.80;5.60;;;;;;;;;;5093511;28;20032;-65
2022/07/04 09:26:33;;;;;;;5.80;5.60;;;;;;;;;;5093732;28;20016;-64
2022/07/04 09:28:58;;;;;;;5.60;5.40;;;;;;;;;;5093329;28;20403;-64
2022/07/04 09:31:28;;;;;;;5.70;5.50;;;;;;;;;;5093063;28;20067;-65
2022/07/04 09:34:00;;;;;;;5.57;5.38;;;;;;;;;;5093056;28;20020;-63
2022/07/04 09:36:31;;;;;;;5.80;5.60;;;;;;;;;;5092015;28;20028;-65
2022/07/04 09:39:11;;;;;;;5.50;5.30;;;;;;;;;;5092884;28;20024;-63
2022/07/04 09:41:55;;;;;;;5.60;5.40;;;;;;;;;;5092970;28;20045;-64
2022/07/04 09:44:22;;;;;;;5.50;5.30;;;;;;;;;;5092874;28;20107;-64
2022/07/04 09:46:47;;;;;;;5.80;5.60;;;;;;;;;;5092487;28;20048;-64
2022/07/04 09:49:12;;;;;;;5.50;5.30;;;;;;;;;;5092647;28;20097;-64
2022/07/04 09:51:39;;;;;;;5.50;5.30;;;;;;;;;;5092406;28;20016;-64
2022/07/04 09:54:14;;;;;;;5.63;5.43;;;;;;;;;;5091694;28;20020;-63
2022/07/04 09:56:43;;;;;;;5.60;5.40;;;;;;;;;;5092945;28;20087;-64
2022/07/04 09:59:08;;;;;;;5.50;5.30;;;;;;;;;;5092720;28;20073;-64
2022/07/04 10:01:34;;;;;;;5.50;5.30;;;;;;;;;;5092690;28;20028;-63
2022/07/04 10:03:59;;;;;;;5.53;5.32;;;;;;;;;;5092358;28;20020;-64
2022/07/04 10:06:24;;;;;;;5.67;5.47;;;;;;;;;;5092500;28;20012;-64
2022/07/04 10:08:50;;;;;;;5.53;5.32;;;;;;;;;;5092603;28;20272;-63
2022/07/04 10:11:15;;;;;;;5.70;5.50;;;;;;;;;;5090134;28;20524;-65
2022/07/04 10:13:40;;;;;;;5.70;5.50;;;;;;;;;;5092149;28;20062;-64
2022/07/04 10:16:07;;;;;;;5.60;5.40;;;;;;;;;;5090922;28;20020;-63
2022/07/04 10:18:34;;;;;;;5.55;5.35;;;;;;;;;;5092762;28;20035;-64
2022/07/04 10:20:59;;;;;;;5.60;5.40;;;;;;;;;;5092444;28;20067;-63
2022/07/04 10:23:30;;;;;;;5.60;5.40;;;;;;;;;;5101153;28;20032;-64
2022/07/04 10:25:56;;;;;;;5.60;5.40;;;;;;;;;;5092282;28;20035;-64
2022/07/04 10:28:21;;;;;;;5.67;5.47;;;;;;;;;;5081985;28;20490;-63
2022/07/04 10:30:51;;;;;;;5.72;5.53;;;;;;;;;;5086091;28;20261;-65
2022/07/04 10:33:21;;;;;;;5.57;5.38;;;;;;;;;;5085569;28;20020;-64
2022/07/04 10:35:53;;;;;;;5.55;5.35;;;;;;;;;;5092015;28;20095;-64
2022/07/04 10:38:19;;;;;;;5.68;5.47;;;;;;;;;;5091986;28;20081;-65
2022/07/04 10:40:46;;;;;;;5.70;5.50;;;;;;;;;;5090994;28;20016;-63
2022/07/04 10:43:41;;;;;;;5.70;5.50;;;;;;;;;;5091839;28;20024;-63
2022/07/04 10:46:15;;;;;;;5.70;5.50;;;;;;;;;;5088172;28;20071;-64
2022/07/04 10:48:54;;;;;;;5.50;5.30;;;;;;;;;;5091789;28;20027;-64
2022/07/04 10:51:47;;;;;;;5.70;5.50;;;;;;;;;;5091875;28;20031;-65
2022/07/04 10:54:17;;;;;;;5.70;5.50;;;;;;;;;;5091705;28;20431;-64
2022/07/04 10:56:48;;;;;;;5.70;5.50;;;;;;;;;;5091588;28;20498;-64
2022/07/04 10:59:16;;;;;;;5.57;5.38;;;;;;;;;;5091676;28;20019;-64
2022/07/04 11:01:45;;;;;;;5.80;5.60;;;;;;;;;;5090644;28;20505;-63
2022/07/04 11:04:10;;;;;;;5.90;5.70;;;;;;;;;;5091744;28;20076;-63
2022/07/04 11:06:36;;;;;;;5.75;5.55;;;;;;;;;;5091915;28;20095;-64
2022/07/04 11:09:20;;;;;;;5.70;5.50;;;;;;;;;;5091230;28;20024;-63
2022/07/04 11:11:51;;;;;;;5.95;5.75;;;;;;;;;;5080600;28;20153;-64
2022/07/04 11:14:35;;;;;;;5.50;5.30;;;;;;;;;;5088003;28;20024;-63
2022/07/04 11:17:00;;;;;;;;;;;;;;;;;;5092023;28;20065;-64
2022/07/04 11:19:27;;;;;;;5.55;5.35;;;;;;;;;;5090652;28;19946;-63
2022/07/04 11:21:54;;;;;;;5.80;5.60;;;;;;;;;;5097739;28;20390;-63
2022/07/04 11:24:20;;;;;;;5.70;5.50;;;;;;;;;;5097647;28;20020;-63
2022/07/04 11:26:45;;;;;;;5.70;5.50;;;;;;;;;;5091146;28;20050;-64
2022/07/04 11:29:12;;;;;;;5.33;5.13;;;;;;;;;;5091381;28;20150;-64
2022/07/04 11:31:38;;;;;;;5.63;5.43;;;;;;;;;;5091510;28;20259;-64
2022/07/04 11:34:04;;;;;;;5.70;5.50;;;;;;;;;;5091756;28;20016;-64
2022/07/04 11:36:29;;;;;;;5.70;5.50;;;;;;;;;;5090486;28;20024;-64
2022/07/04 11:38:56;;;;;;;5.78;5.57;;;;;;;;;;5090102;28;20036;-64
2022/07/04 11:47:01;;;;;;;5.70;5.50;;;;;;;;;;5091542;28;20059;-64
2022/07/04 11:49:26;;;;;;;5.68;5.47;;;;;;;;;;5091601;28;20046;-64
2022/07/04 11:51:52;;;;;;;5.77;5.57;;;;;;;;;;5090242;28;20484;-64
2022/07/04 11:54:18;;;;;;;5.68;5.47;;;;;;;;;;5091150;28;20274;-63
2022/07/04 11:56:44;;;;;;;5.82;5.63;;;;;;;;;;5091149;28;20023;-64
2022/07/04 11:59:14;;;;;;;5.70;5.50;;;;;;;;;;5091464;28;20391;-64
2022/07/04 12:01:40;;;;;;;5.80;5.60;;;;;;;;;;5091002;28;20111;-64
2022/07/04 12:04:19;;;;;;;5.80;5.60;;;;;;;;;;5091109;28;20065;-63
2022/07/04 12:06:45;;;;;;;5.80;5.60;;;;;;;;;;5092010;28;20074;-63
2022/07/04 12:09:11;;;;;;;5.70;5.50;;;;;;;;;;5091513;28;20102;-63
2022/07/04 12:11:50;;;;;;;5.70;5.50;;;;;;;;;;5094786;28;20107;-65
2022/07/04 12:14:15;;;;;;;5.57;5.38;;;;;;;;;;5093126;28;20036;-64
2022/07/04 12:16:40;;;;;;;5.50;5.30;;;;;;;;;;5094763;28;20026;-63
2022/07/04 12:19:10;;;;;;;5.70;5.50;;;;;;;;;;5098251;28;20636;-63
2022/07/04 12:21:35;;;;;;;5.65;5.45;;;;;;;;;;5094865;28;20119;-64
2022/07/04 12:24:03;;;;;;;5.70;5.50;;;;;;;;;;5094481;28;20063;-63
2022/07/04 12:26:29;;;;;;;5.70;5.50;;;;;;;;;;5088334;28;20040;-64
2022/07/04 12:28:56;;;;;;;5.70;5.50;;;;;;;;;;5094101;28;20130;-63
2022/07/04 12:31:37;;;;;;;5.55;5.35;;;;;;;;;;5094493;28;20093;-63
2022/07/04 12:34:02;;;;;;;5.50;5.30;;;;;;;;;;5090308;28;20020;-63
2022/07/04 12:36:28;;;;;;;5.80;5.60;;;;;;;;;;5093228;28;20012;-64
2022/07/04 12:38:55;;;;;;;5.80;5.60;;;;;;;;;;5096218;28;20337;-74
2022/07/04 12:41:29;;;;;;;5.80;5.60;;;;;;;;;;5095672;28;20401;-63
2022/07/04 12:43:54;;;;;;;5.72;5.53;;;;;;;;;;5085803;28;20024;-64
2022/07/04 12:46:32;;;;;;;5.60;5.40;;;;;;;;;;5084705;28;20051;-63
2022/07/04 12:48:59;;;;;;;5.80;5.60;;;;;;;;;;5090683;28;20028;-63
2022/07/04 12:51:28;;;;;;;5.70;5.50;;;;;;;;;;5094568;28;20016;-64
2022/07/04 12:53:55;;;;;;;5.70;5.50;;;;;;;;;;5093896;28;20429;-65
2022/07/04 12:56:37;;;;;;;5.70;5.50;;;;;;;;;;5093927;28;20023;-65
2022/07/04 12:59:04;;;;;;;5.57;5.38;;;;;;;;;;5093893;28;20079;-64
2022/07/04 13:01:29;;;;;;;5.80;5.60;;;;;;;;;;5093363;28;20087;-65
2022/07/04 13:03:55;;;;;;;5.72;5.53;;;;;;;;;;5094010;28;20028;-64
2022/07/04 13:06:21;;;;;;;5.63;5.43;;;;;;;;;;5084933;28;20548;-64
2022/07/04 13:08:46;;;;;;;5.72;5.53;;;;;;;;;;5087524;28;20072;-64
2022/07/04 13:13:55;;;;;;;5.80;5.60;;;;;;;;;;5087205;28;20391;-63
2022/07/04 13:16:20;;;;;;;5.80;5.60;;;;;;;;;;5092059;28;20024;-64
2022/07/04 13:18:46;;;;;;;5.80;5.60;;;;;;;;;;5091838;28;20335;-65
2022/07/04 13:21:11;;;;;;;5.65;5.45;;;;;;;;;;5091038;28;20438;-64
2022/07/04 13:23:38;;;;;;;5.70;5.50;;;;;;;;;;5093191;28;20016;-64
2022/07/04 13:26:04;;;;;;;5.70;5.50;;;;;;;;;;5093282;28;20088;-65
2022/07/04 13:28:29;;;;;;;5.80;5.60;;;;;;;;;;5093282;28;20032;-65
2022/07/04 13:30:54;;;;;;;5.93;5.72;;;;;;;;;;5093299;28;20028;-65
2022/07/04 13:33:21;;;;;;;5.68;5.47;;;;;;;;;;5093094;28;20028;-64
2022/07/04 13:35:47;;;;;;;5.65;5.45;;;;;;;;;;5090295;28;20012;-64
2022/07/04 13:38:14;;;;;;;5.60;5.40;;;;;;;;;;5092830;28;20046;-64
2022/07/04 13:40:41;;;;;;;5.72;5.53;;;;;;;;;;5093148;28;20024;-65
2022/07/04 13:43:09;;;;;;;5.70;5.50;;;;;;;;;;5092758;28;20024;-65
2022/07/04 13:45:35;;;;;;;5.60;5.40;;;;;;;;;;5092980;28;20032;-65
2022/07/04 13:48:00;;;;;;;5.63;5.43;;;;;;;;;;5092772;28;20600;-65
2022/07/04 13:50:26;;;;;;;5.70;5.50;;;;;;;;;;5093098;28;20035;-64
2022/07/04 13:52:51;;;;;;;5.90;5.70;;;;;;;;;;5088919;28;20744;-64
2022/07/04 13:55:17;;;;;;;5.80;5.60;;;;;;;;;;5092890;28;20284;-64
2022/07/04 13:57:42;;;;;;;5.70;5.50;;;;;;;;;;5092751;28;20055;-64
2022/07/04 14:00:09;;;;;;;5.80;5.60;;;;;;;;;;5092999;28;20349;-65
2022/07/04 14:02:34;;;;;;;5.55;5.35;;;;;;;;;;5092364;28;20062;-64
2022/07/04 14:05:00;;;;;;;5.50;5.30;;;;;;;;;;5092617;28;20056;-64
2022/07/04 14:07:25;;;;;;;5.70;5.50;;;;;;;;;;5092296;28;20027;-64
2022/07/04 14:09:50;;;;;;;5.60;5.40;;;;;;;;;;5084152;28;20044;-64
2022/07/04 14:12:16;;;;;;;5.63;5.43;;;;;;;;;;5092464;28;20020;-64
2022/07/04 14:14:42;;;;;;;5.60;5.40;;;;;;;;;;5092337;28;20020;-64
2022/07/04 14:17:07;;;;;;;5.50;5.30;;;;;;;;;;5092694;28;20099;-64
2022/07/04 14:19:32;;;;;;;5.60;5.40;;;;;;;;;;5092344;28;20047;-64
2022/07/04 14:21:57;;;;;;;5.50;5.30;;;;;;;;;;5092361;28;20244;-64
2022/07/04 14:24:25;;;;;;;5.50;5.30;;;;;;;;;;5092716;28;20669;-63
2022/07/04 14:26:51;;;;;;;5.60;5.40;;;;;;;;;;5080912;28;20061;-65
2022/07/04 14:29:16;;;;;;;5.68;5.47;;;;;;;;;;5091566;28;20047;-64
2022/07/04 14:31:41;;;;;;;5.50;5.30;;;;;;;;;;5091554;28;20020;-64
2022/07/04 14:34:09;;;;;;;5.70;5.50;;;;;;;;;;5086258;28;20024;-64
2022/07/04 14:36:35;;;;;;;5.70;5.50;;;;;;;;;;5092494;28;20027;-63
2022/07/04 14:39:01;;;;;;;5.60;5.40;;;;;;;;;;5092395;28;20032;-64
2022/07/04 14:41:26;;;;;;;5.75;5.55;;;;;;;;;;5091651;28;20047;-65
2022/07/04 14:43:52;;;;;;;5.30;5.10;;;;;;;;;;5091125;28;20502;-64
2022/07/04 14:46:17;;;;;;;5.25;5.05;;;;;;;;;;5091956;28;20054;-64
2022/07/04 14:48:42;;;;;;;5.57;5.38;;;;;;;;;;5091651;28;20047;-64
2022/07/04 14:51:09;;;;;;;5.50;5.30;;;;;;;;;;5091871;28;20048;-65
2022/07/04 14:53:35;;;;;;;5.40;5.20;;;;;;;;;;5077975;28;20020;-64
2022/07/04 14:56:01;;;;;;;5.40;5.20;;;;;;;;;;5091672;28;20020;-64
2022/07/04 14:58:26;;;;;;;5.40;5.20;;;;;;;;;;5084295;28;20082;-65
2022/07/04 15:00:51;;;;;;;5.40;5.20;;;;;;;;;;5091309;28;20106;-65